Terminal Aerodrome Forecast
Issued by NWS

Home | Current Version | Previous Version | Text Only | Print | Product List | Glossary On
Versions: 1 2 3 4 5 6 7 8 9 10 11 12 13 14 15
000
FTUS42 TJSJ 301723
TAFJSJ
TAF
TJSJ 301723Z 3018/3118 06016G22KT P6SM VCSH SCT030 SCT050
     FM302300 08010G20KT P6SM VCTS SCT025CB BKN040
     FM311000 08015G23KT P6SM -TSRA BKN025CB BKN040=

USA.gov is the U.S. government's official web portal to all federal, state and local government web resources and services.